Terminal Aerodrome Forecast
Issued by NWS

Home | Current Version | Previous Version | Text Only | Print | Product List | Glossary On
Versions: 1 2 3 4 5 6 7 8 9 10 11 12 13 14 15 16 17
000
FTUS45 KABQ 182000 AAA
TAFTCC
TAF AMD
KTCC 182042Z 1821/1918 13010KT P6SM VCSH OVC060
     FM190200 12010KT P6SM -RA SCT008 BKN020
     FM190800 10005KT 5SM -RA BKN008 OVC015=

USA.gov is the U.S. government's official web portal to all federal, state and local government web resources and services.